Meath Environmental Platform

Observations

Time Sensor AQI SAQ Temp °C Hum % Pres Pa CO μg/m³ H₂S μg/m³ NO μg/m³ NO₂ μg/m³ O₃ μg/m³ SO₂ μg/m³ CO₂e PPM VOC PPM PM1 μg/m³ PM2.5 μg/m³ PM4 μg/m³ PM10 μg/m³ TPS µm
Thursday 13 August 2026
09:30 Trim Patrick St 1 29.1 53 71,232 0 0 0.95 10.46 38.56 11.67 2.86 7.72 8.5
09:30 Trim Market St 2 28.5 53 57,475 0 0 0.66 10.2 53.06 0 2.14 4.35 6.08
09:29 Trim Patrick St 1 29.1 53 71,254 0 0 0.93 7.99 39.77 12.24 4.57 8.47 9.32
09:25 Trim Patrick St 1 29.1 53 71,375 0 0 0.91 6.35 24.89 11.09 3.71 9.25 10.18
09:24 Trim Patrick St 1 29.2 53 71,444 0 0 0.95 8.84 19.42 11.96 4.57 9.22 10.15
09:23 Trim Patrick St 1 29.2 53 71,507 0 0 0.92 8.01 34.2 11.67 4.57 9.23 10.15
09:22 Trim Market St 2 29.7 51 55,955 0 0 0.64 11.09 32.89 0 1.43 3.45 3.82
09:22 Trim Patrick St 1 29.2 54 71,593 0 0 0.94 6.31 36.1 11.93 3.71 8.45 9.3
09:21 Trim Market St 2 29.7 51 55,781 0 0 0.64 8.92 29.15 0 2.14 3.97 6.04
09:21 Trim Patrick St 1 29.2 53 71,642 0 0 0.92 6.93 37.12 11.72 3.71 7.72 8.5
09:20 Trim Market St 2 29.7 51 55,784 0 0 0.69 8.05 23.64 0 2.14 4.48 6.04
09:20 Trim Patrick St 1 29.2 53 71,684 0 0 0.92 6.93 22.96 10.82 3.71 7.72 8.5
09:19 Trim Market St 2 29.8 51 55,802 0 0 0.71 9.02 25.76 0 1.43 3.45 3.82
09:19 Trim Patrick St 1 29.2 54 71,821 0 0 1 4.15 20.4 11.58 3.71 8.4 9.24
09:18 Trim Market St 2 29.7 51 55,801 0.19 0 0.77 8.62 20.24 0 2.14 3.96 6.05
09:18 Trim Patrick St 1 29.2 54 72,045 0 0 1.01 6.89 25.14 11.27 3.71 8.43 9.28
09:17 Trim Market St 2 29.8 51 55,831 0 0 0.79 10.51 25.58 0 1.43 2.93 3.09
09:17 Trim Patrick St 1 29.2 54 72,155 0 0 1.02 7.37 25.07 11.33 3.71 8.45 9.3
09:16 Trim Market St 2 29.8 51 55,878 0.02 0 0.81 9.31 0 0 2.14 3.95 4.57
09:16 Trim Patrick St 1 29.2 54 72,295 0 0 1.03 5.9 19.67 11 4.57 9.2 10.12